Latest Weather Observations for Ulladulla

IDN60901

Issued at 11:41 pm EDT Monday 2 March 2015 (issued every 10 minutes, with the page automatically refreshed every 10 minutes)

About weather observations | Map of Canberra area stations | Latest observations for Canberra area | Other Formats
Station Details ID: 069138 Name: ULLADULLA AWS Lat: -35.36 Lon: 150.48 Height: 35.7 m
Data from the previous 72 hours. | See also: Recent months at Ulladulla
Date/Time
EDT
Tmp

°C
App
Tmp
°C
Dew
Point
°C
Rel
Hum
%
Delta-T

°C
Wind Press
QNH
hPa
Press
MSL
hPa
Rain
since
9 am
mm
Dir
 
Spd
km/h
Gust
km/h
Spd
kts
Gust
kts
02/11:30pm 18.5 19.7 15.9 85 1.5 NNW 4 4 2 2 1017.5 1017.4 0.0
02/11:00pm 18.6 19.8 15.8 84 1.7 N 4 6 2 3 1017.6 1017.5 0.0
02/10:30pm 18.5 20.0 15.6 83 1.7 NNW 2 4 1 2 1017.6 1017.5 0.0
02/10:00pm 19.0 20.1 15.7 81 2.0 NNW 4 6 2 3 1017.4 1017.3 0.0
02/09:30pm 19.1 20.6 15.8 81 2.0 NW 2 6 1 3 1017.6 1017.5 0.0
02/09:00pm 19.1 20.3 15.8 81 2.0 NNW 4 6 2 3 1017.1 1017.0 0.0
02/08:30pm 19.0 19.6 15.9 82 1.8 N 7 9 4 5 1016.7 1016.6 0.0
02/08:00pm 19.1 20.0 16.1 83 1.8 NNW 6 7 3 4 1016.8 1016.7 0.0
02/07:30pm 19.7 21.0 16.2 80 2.1 NNW 4 7 2 4 1017.2 1017.1 0.0
02/07:00pm 20.4 22.0 16.0 76 2.6 ENE 2 4 1 2 1016.9 1016.8 0.0
02/06:30pm 20.8 22.3 15.8 73 3.0 ESE 2 4 1 2 1017.2 1017.1 0.0
02/06:00pm 20.6 22.1 15.6 73 3.0 S 2 2 1 1 1017.0 1016.9 0.0
02/05:30pm 20.6 21.5 15.2 71 3.2 SSW 4 6 2 3 1017.1 1017.0 0.0
02/05:00pm 20.7 21.4 15.5 72 3.1 SSW 6 7 3 4 1017.1 1017.0 0.0
02/04:30pm 21.1 21.8 15.6 71 3.3 S 6 9 3 5 1017.2 1017.1 0.0
02/04:00pm 20.7 20.4 14.4 67 3.7 S 9 11 5 6 1017.3 1017.2 0.0
02/03:30pm 21.3 20.9 14.2 64 4.1 S 9 13 5 7 1017.7 1017.6 0.0
02/03:00pm 21.0 20.5 13.7 63 4.2 S 9 13 5 7 1017.8 1017.7 0.0
02/02:30pm 21.0 20.8 13.7 63 4.2 S 7 9 4 5 1018.4 1018.3 0.0
02/02:00pm 20.9 20.6 13.4 62 4.3 S 7 13 4 7 1018.7 1018.6 0.0
02/01:30pm 20.7 19.3 12.1 58 4.8 S 11 15 6 8 1018.8 1018.7 0.0
02/01:00pm 20.8 19.3 12.0 57 4.9 S 11 15 6 8 1019.1 1019.0 0.0
02/12:30pm 21.2 20.1 13.1 60 4.6 S 11 15 6 8 1019.5 1019.4 0.0
02/12:00pm 20.7 18.7 11.6 56 5.0 S 13 17 7 9 1019.8 1019.7 0.0
02/11:30am 20.9 19.0 11.8 56 5.1 S 13 17 7 9 1020.1 1020.0 0.0
02/11:00am 20.8 19.2 11.7 56 5.1 SSW 11 15 6 8 1020.2 1020.1 0.0
02/10:30am 20.2 18.2 10.3 53 5.4 SSW 11 15 6 8 1019.9 1019.8 0.0
02/10:00am 19.7 17.4 9.0 50 5.6 SSW 11 17 6 9 1020.0 1019.9 0.0
02/09:30am 19.5 17.5 10.0 54 5.1 SSW 11 17 6 9 1019.9 1019.8 0.0
02/09:00am 18.9 17.5 9.7 55 4.9 SW 7 15 4 8 1019.9 1019.8 2.8
02/08:30am 17.9 15.7 9.5 58 4.4 SW 11 19 6 10 1019.6 1019.5 2.8
02/08:00am 16.7 14.4 9.1 61 3.9 SW 11 17 6 9 1019.5 1019.4 2.8
02/07:30am 15.5 13.7 9.4 67 3.2 WSW 9 15 5 8 1019.3 1019.2 2.8
02/07:00am 14.4 12.6 9.4 72 2.6 WSW 9 13 5 7 1019.0 1018.9 2.8
02/06:30am 14.5 12.8 9.7 73 2.5 WSW 9 15 5 8 1018.7 1018.6 2.8
02/06:00am 14.7 12.6 9.9 73 2.5 SW 11 17 6 9 1018.4 1018.3 2.8
02/05:30am 14.8 13.1 9.8 72 2.6 SW 9 19 5 10 1018.1 1018.0 2.8
02/05:00am 15.1 12.7 9.9 71 2.7 SW 13 19 7 10 1018.2 1018.1 2.8
02/04:30am 15.4 13.0 10.2 71 2.7 SW 13 19 7 10 1017.8 1017.7 2.8
02/04:00am 15.6 13.3 10.4 71 2.7 SW 13 22 7 12 1017.4 1017.3 2.8
02/03:30am 15.7 13.4 10.5 71 2.8 SW 13 20 7 11 1017.8 1017.7 2.8
02/03:00am 16.2 14.1 9.6 65 3.4 SW 11 17 6 9 1017.8 1017.7 2.8
02/02:30am 17.2 14.4 9.9 62 3.8 SW 15 30 8 16 1017.9 1017.8 2.8
02/02:00am 18.2 13.8 11.7 66 3.6 S 26 37 14 20 1017.9 1017.8 2.8
02/01:30am 18.3 12.5 11.4 64 3.8 S 33 41 18 22 1018.0 1017.9 2.8
02/01:00am 18.5 11.9 11.3 63 3.9 S 37 46 20 25 1017.7 1017.6 2.8
02/12:30am 18.5 13.0 11.8 65 3.7 S 32 46 17 25 1017.6 1017.5 2.8
 
Date/Time
EDT
Tmp

°C
App
Tmp
°C
Dew
Point
°C
Rel
Hum
%
Delta-T

°C
Wind Press
QNH
hPa
Press
MSL
hPa
Rain
since
9 am
mm
Dir
 
Spd
km/h
Gust
km/h
Spd
kts
Gust
kts
01/11:30pm 18.9 14.5 12.9 68 3.4 S 28 39 15 21 1017.6 1017.5 2.8
01/11:00pm 19.0 14.4 13.4 70 3.2 S 30 41 16 22 1017.4 1017.3 2.8
01/10:30pm 19.3 14.3 13.3 68 3.4 S 32 46 17 25 1017.3 1017.2 2.8
01/10:00pm 19.7 13.5 13.9 69 3.3 S 39 52 21 28 1016.8 1016.7 2.8
01/09:30pm 19.8 13.7 14.2 70 3.2 S 39 54 21 29 1016.1 1016.0 2.8
01/09:00pm 19.8 13.7 14.0 69 3.3 S 39 56 21 30 1015.7 1015.6 2.8
01/08:30pm 19.8 14.3 13.7 68 3.5 S 35 50 19 27 1014.9 1014.8 2.8
01/08:00pm 19.8 14.8 14.0 69 3.3 S 33 46 18 25 1014.1 1014.0 2.8
01/07:30pm 19.8 14.9 13.7 68 3.5 S 32 43 17 23 1013.5 1013.4 2.8
01/07:00pm 19.8 14.7 13.7 68 3.5 S 33 50 18 27 1013.0 1012.9 2.8
01/06:30pm 19.6 14.7 14.2 71 3.1 S 33 46 18 25 1012.3 1012.2 2.8
01/06:00pm 19.7 15.1 15.1 75 2.7 S 33 44 18 24 1011.8 1011.7 2.8
01/05:30pm 19.8 14.4 16.1 79 2.2 S 39 48 21 26 1011.0 1010.9 2.8
01/05:00pm 19.7 13.5 14.9 74 2.8 S 41 54 22 29 1010.4 1010.3 2.8
01/04:53pm 19.8 13.4 15.4 76 2.6 S 43 61 23 33 1010.3 1010.2 2.8
01/04:30pm 19.2 12.4 14.9 76 2.5 S 44 57 24 31 1010.0 1009.9 2.8
01/04:00pm 18.1 12.0 16.6 91 0.9 S 44 57 24 31 1009.0 1008.9 2.6
01/03:30pm 18.8 14.1 17.8 94 0.6 S 39 52 21 28 1009.3 1009.2 0.4
01/03:00pm 20.0 18.1 17.6 86 1.5 S 24 35 13 19 1009.0 1008.9 0.0
01/02:30pm 19.8 14.5 17.2 85 1.6 S 41 56 22 30 1008.4 1008.3 0.0
01/02:27pm 19.8 13.5 17.2 85 1.6 S 46 65 25 35 1008.2 1008.1 0.0
01/02:17pm 20.1 13.1 17.3 84 1.7 S 50 65 27 35 1007.8 1007.7 0.0
01/02:07pm 20.7 18.1 18.6 88 1.3 SSW 30 48 16 26 1007.6 1007.5 0.0
01/02:00pm 20.7 18.4 18.5 87 1.4 SSW 28 41 15 22 1007.8 1007.7 0.0
01/01:30pm 21.7 19.7 19.1 85 1.6 SSW 28 39 15 21 1007.4 1007.3 0.0
01/01:00pm 21.9 19.5 19.1 84 1.8 SSW 30 41 16 22 1007.0 1006.9 0.0
01/12:30pm 22.4 19.4 18.6 79 2.4 SSW 32 48 17 26 1006.7 1006.6 0.0
01/12:25pm 22.7 20.0 18.5 77 2.6 SSW 30 48 16 26 1006.7 1006.6 0.0
01/12:00pm 22.6 21.6 19.6 83 1.9 SSW 24 32 13 17 1006.1 1006.0 0.0
01/11:30am 22.3 22.1 18.5 79 2.4 SSW 17 26 9 14 1005.5 1005.4 0.0
01/11:00am 23.8 24.4 18.7 73 3.2 S 13 20 7 11 1005.5 1005.4 0.0
01/10:30am 22.8 23.3 18.3 76 2.8 S 13 19 7 10 1005.2 1005.0 0.0
01/10:00am 23.0 23.6 18.7 77 2.7 S 13 19 7 10 1005.4 1005.2 0.0
01/09:30am 22.9 24.2 19.3 80 2.3 S 11 15 6 8 1005.3 1005.1 0.0
01/09:00am 23.9 26.7 19.6 77 2.8 SSW 4 7 2 4 1005.0 1004.8 0.0
01/08:30am 22.1 24.6 19.1 83 1.9 S 4 7 2 4 1005.0 1004.8 0.0
01/08:00am 22.1 23.9 19.5 85 1.7 N 9 15 5 8 1004.3 1004.1 0.0
01/07:30am 21.1 23.3 19.7 92 0.9 NNE 7 11 4 6 1004.0 1003.8 0.0
01/07:00am 20.7 22.8 19.4 92 0.8 N 7 11 4 6 1003.6 1003.4 0.0
01/06:30am 20.8 22.8 20.0 95 0.5 NNW 9 13 5 7 1003.1 1002.9 0.0
01/06:00am 20.8 23.4 20.1 96 0.5 NNW 6 13 3 7 1003.0 1002.8 0.0
01/05:30am 20.9 23.9 20.1 95 0.5 NNE 4 11 2 6 1003.1 1002.9 0.0
01/05:00am 21.0 23.5 20.2 95 0.5 NNW 7 11 4 6 1002.9 1002.7 0.0
01/04:30am 20.9 23.0 20.2 96 0.4 N 9 15 5 8 1003.1 1002.9 0.0
01/04:00am 20.9 23.6 20.6 98 0.2 NNW 7 13 4 7 1003.1 1002.9 0.0
01/03:30am 21.0 23.0 20.7 98 0.2 NNW 11 15 6 8 1003.4 1003.2 0.0
01/03:00am 21.0 23.8 20.8 99 0.1 NNW 7 13 4 7 1003.8 1003.6 0.0
01/02:30am 21.0 23.9 20.7 98 0.2 NNW 6 11 3 6 1003.9 1003.7 0.0
01/02:00am 21.0 23.8 20.8 99 0.1 N 7 13 4 7 1004.3 1004.1 0.0
01/01:30am 21.2 22.5 20.9 98 0.2 N 15 20 8 11 1004.8 1004.6 0.0
01/01:00am 21.4 23.2 21.1 98 0.2 NNW 13 20 7 11 1005.1 1004.9 0.0
01/12:30am 21.4 22.3 20.9 97 0.3 N 17 24 9 13 1005.5 1005.3 0.0
01/12:00am 21.6 22.1 20.8 95 0.5 N 19 26 10 14 1005.7 1005.5 0.0
 
Date/Time
EDT
Tmp

°C
App
Tmp
°C
Dew
Point
°C
Rel
Hum
%
Delta-T

°C
Wind Press
QNH
hPa
Press
MSL
hPa
Rain
since
9 am
mm
Dir
 
Spd
km/h
Gust
km/h
Spd
kts
Gust
kts
28/11:30pm 21.6 24.3 20.6 94 0.6 N 7 13 4 7 1006.1 1005.9 0.0
28/11:00pm 21.8 22.8 20.3 91 1.0 N 15 22 8 12 1006.4 1006.2 0.0
28/10:30pm 22.0 22.5 20.1 89 1.2 N 17 24 9 13 1006.5 1006.3 0.0
28/10:00pm 22.1 23.0 20.0 88 1.4 N 15 22 8 12 1006.7 1006.5 0.0
28/09:30pm 22.1 23.6 19.8 87 1.5 NNW 11 17 6 9 1006.8 1006.6 0.0
28/09:00pm 22.2 23.4 19.9 87 1.5 NNW 13 20 7 11 1006.7 1006.5 0.0
28/08:30pm 22.3 23.9 20.0 87 1.5 NNW 11 19 6 10 1006.7 1006.5 0.0
28/08:00pm 22.4 24.7 19.8 85 1.7 N 7 13 4 7 1006.5 1006.3 0.0
28/07:30pm 22.7 25.1 19.7 83 1.9 N 6 11 3 6 1006.3 1006.1 0.0
28/07:00pm 22.9 24.9 19.9 83 1.9 NNE 9 19 5 10 1006.1 1005.9 0.0
28/06:30pm 23.3 24.9 19.9 81 2.2 NNE 11 20 6 11 1006.0 1005.8 0.0
28/06:00pm 23.5 24.7 19.8 80 2.4 NE 13 20 7 11 1005.9 1005.7 0.0
28/05:30pm 23.4 23.7 19.5 79 2.5 NE 17 30 9 16 1006.0 1005.8 0.0
28/05:00pm 23.9 23.2 19.4 76 2.9 NE 22 32 12 17 1006.2 1006.0 0.0
28/04:30pm 23.8 23.4 19.3 76 2.9 NE 20 30 11 16 1006.6 1006.4 0.0
28/04:00pm 24.0 22.6 19.7 77 2.8 NE 26 35 14 19 1006.8 1006.6 0.0
28/03:30pm 23.9 23.5 19.4 76 2.9 NE 20 30 11 16 1006.9 1006.7 0.0
28/03:00pm 24.0 23.2 20.1 79 2.5 NE 24 32 13 17 1007.2 1007.0 0.0
28/02:30pm 23.8 23.2 19.7 78 2.6 NE 22 32 12 17 1007.7 1007.6 0.0
28/02:00pm 23.6 23.9 19.7 79 2.5 NE 17 24 9 13 1008.2 1008.1 0.0
28/01:30pm 23.2 23.8 19.4 79 2.4 NE 15 22 8 12 1008.5 1008.4 0.0
28/01:00pm 23.4 25.2 19.5 79 2.5 NE 9 17 5 9 1008.7 1008.6 0.0
28/12:30pm 23.0 25.6 20.0 83 1.9 NNE 6 11 3 6 1008.9 1008.8 0.0
28/12:00pm 22.6 24.1 19.8 84 1.8 NE 11 19 6 10 1009.2 1009.1 0.0
28/11:30am 22.6 24.4 18.8 79 2.4 NNE 7 17 4 9 1009.5 1009.4 0.0
28/11:00am 23.4 25.5 20.2 82 2.1 NNE 9 17 5 9 1009.8 1009.7 0.0
28/10:30am 21.8 23.8 19.2 85 1.6 NE 7 13 4 7 1010.0 1009.9 0.0
28/10:00am 22.4 24.9 19.8 85 1.7 N 6 9 3 5 1010.4 1010.3 0.0
28/09:30am 21.3 23.4 18.9 86 1.5 N 6 11 3 6 1010.2 1010.1 0.0
28/09:00am 20.7 22.5 18.3 86 1.5 N 6 7 3 4 1010.3 1010.2 0.0
28/08:30am 20.8 22.6 18.4 86 1.5 N 6 7 3 4 1010.3 1010.2 0.0
28/08:00am 19.6 21.4 18.4 93 0.7 NNW 6 7 3 4 1010.2 1010.1 0.0
28/07:30am 19.1 20.7 17.9 93 0.7 NNW 6 6 3 3 1010.0 1009.9 0.0
28/07:00am 18.9 20.9 17.9 94 0.6 NNW 4 6 2 3 1009.8 1009.7 0.0
28/06:30am 19.4 21.8 18.7 96 0.4 NNW 4 6 2 3 1009.5 1009.4 0.0
28/06:00am 18.9 21.4 18.2 96 0.4 NW 2 6 1 3 1009.3 1009.2 0.0
28/05:30am 18.8 21.4 17.6 93 0.7 CALM 0 0 0 0 1009.1 1009.0 0.0
28/05:00am 18.7 20.3 17.9 95 0.5 WSW 6 7 3 4 1009.2 1009.1 0.0
28/04:30am 18.7 21.4 17.7 94 0.6 CALM 0 0 0 0 1009.2 1009.1 0.0
28/04:00am 18.7 21.5 17.9 95 0.5 CALM 0 0 0 0 1009.2 1009.1 0.0
28/03:30am 18.7 21.5 17.9 95 0.5 CALM 0 2 0 1 1009.5 1009.4 0.0
28/03:00am 18.8 21.4 17.6 93 0.7 CALM 0 2 0 1 1009.5 1009.4 0.0
28/02:30am 19.3 21.1 18.3 94 0.6 WNW 6 6 3 3 1009.4 1009.3 0.0
28/02:00am 19.5 21.4 18.5 94 0.6 NNW 6 6 3 3 1009.5 1009.4 0.0
28/01:30am 19.7 22.1 18.7 94 0.6 NW 4 6 2 3 1009.9 1009.8 0.0
28/01:00am 19.5 22.3 18.0 91 0.9 CALM 0 0 0 0 1010.1 1010.0 0.0
28/12:30am 19.6 21.9 17.7 89 1.2 NW 2 4 1 2 1010.4 1010.3 0.0
28/12:00am 20.1 22.5 18.8 92 0.8 NNW 4 6 2 3 1010.5 1010.4 0.0

Latest Capital City Observations: Canberra | Sydney | Melbourne | Brisbane | Adelaide | Perth | Hobart | Darwin

Other Formats:

Comma delimited format used in spreadsheet applications
http://www.bom.gov.au/fwo/IDN60903/IDN60903.94938.axf

JavaScript Object Notation format (JSON) in row-major order
http://www.bom.gov.au/fwo/IDN60903/IDN60903.94938.json